Aviation Digital Data Service (ADDS)

Output produced by METARs form (1942 UTC 25 March 2017)
found at http://www.aviationweather.gov/adds/metars/
 
MNBL 251900Z 09004KT 9999 SCT018 30/21 Q1013
MNBL 251500Z 2518/2618 07010KT 9999 FEW019 
     BECMG 2518/2523 08012KT 7000 VCRA SCT020 
     FM260100 11006KT 9999 SCT022
       
MNMG 251900Z 11012KT 9999 FEW020 34/17 Q1010 A2984 NOSIG
MNMG 251500Z 2518/2618 12008KT 9999 FEW020 
     BECMG 2519/2523 07012KT CAVOK 
     BECMG 2602/2607 08010KT 9999 FEW020
       
MNPC 251900Z 09010KT 7000 SCT016 30/25 Q1013 HZ
MNPC 251500Z 2518/2618 34010KT 7000 HZ FEW016 
     BECMG 2520/2602 03008KT 8000 SCT020 
     BECMG 2612/2618 07010KT FEW020